Time;durP1;ratioP1;P1;durP2;ratioP2;P2;SDS_P1;SDS_P2;PMS_P1;PMS_P2;Temp;Humidity;BMP_temperature;BMP_pressure;BME280_temperature;BME280_humidity;BME280_pressure;Samples;Min_cycle;Max_cycle;Signal;HPM_P1;HPM_P2
2023/04/24 00:01:21;;;;;;;0.87;0.60;;;10.00;99.90;;;;;;5047840;28;21258;-74
2023/04/24 00:03:47;;;;;;;1.07;0.80;;;10.00;99.90;;;;;;5047777;28;20720;-73
2023/04/24 00:06:16;;;;;;;0.63;0.63;;;9.90;99.90;;;;;;5047983;28;20647;-73
2023/04/24 00:08:43;;;;;;;0.67;0.60;;;10.00;99.90;;;;;;5047609;28;20641;-74
2023/04/24 00:11:10;;;;;;;0.60;0.40;;;10.00;99.90;;;;;;5048029;28;20656;-73
2023/04/24 00:13:37;;;;;;;0.50;0.40;;;10.00;99.90;;;;;;5047045;28;20660;-74
2023/04/24 00:16:04;;;;;;;0.70;0.50;;;10.00;99.90;;;;;;5047422;28;20645;-74
2023/04/24 00:18:30;;;;;;;0.50;0.50;;;10.00;99.90;;;;;;5047366;28;20628;-73
2023/04/24 00:20:57;;;;;;;1.00;0.80;;;10.00;99.90;;;;;;5047241;28;20652;-73
2023/04/24 00:23:25;;;;;;;0.70;0.60;;;10.00;99.90;;;;;;5047349;28;21238;-73
2023/04/24 00:25:52;;;;;;;0.63;0.50;;;10.00;99.90;;;;;;5047266;28;20662;-74
2023/04/24 00:28:19;;;;;;;0.77;0.77;;;9.90;99.90;;;;;;5046603;28;20679;-73
2023/04/24 00:30:46;;;;;;;0.47;0.30;;;9.90;99.90;;;;;;5047171;28;20988;-74
2023/04/24 00:33:13;;;;;;;0.40;0.40;;;10.00;99.90;;;;;;5031307;28;21332;-74
2023/04/24 00:35:39;;;;;;;0.60;0.60;;;10.10;99.90;;;;;;5047593;28;21236;-74
2023/04/24 00:38:07;;;;;;;0.50;0.40;;;10.10;99.90;;;;;;5047082;28;20637;-73
2023/04/24 00:40:35;;;;;;;0.70;0.70;;;10.10;99.90;;;;;;5043722;28;20659;-74
2023/04/24 00:43:02;;;;;;;0.50;0.40;;;10.10;99.90;;;;;;5033863;28;20632;-74
2023/04/24 00:45:31;;;;;;;0.70;0.53;;;10.10;99.90;;;;;;5047236;28;20682;-74
2023/04/24 00:47:58;;;;;;;0.50;0.40;;;10.10;99.90;;;;;;5047227;28;21252;-73
2023/04/24 00:50:26;;;;;;;0.30;0.30;;;10.20;99.90;;;;;;5046353;28;20648;-73
2023/04/24 00:52:53;;;;;;;0.30;0.30;;;10.20;99.90;;;;;;5046965;28;20632;-74
2023/04/24 00:55:20;;;;;;;0.67;0.50;;;10.20;99.90;;;;;;5048799;28;20633;-73
2023/04/24 00:57:49;;;;;;;0.70;0.57;;;10.20;99.90;;;;;;5050944;28;20642;-73
2023/04/24 01:00:16;;;;;;;0.57;0.57;;;10.20;99.90;;;;;;5047293;28;20626;-74
2023/04/24 01:02:45;;;;;;;0.50;0.40;;;10.30;99.90;;;;;;5050301;28;21139;-74
2023/04/24 01:05:13;;;;;;;0.63;0.60;;;10.20;99.90;;;;;;5049238;28;20736;-73
2023/04/24 01:07:43;;;;;;;0.40;0.40;;;10.20;99.90;;;;;;5050756;28;20642;-74
2023/04/24 01:10:11;;;;;;;0.43;0.43;;;10.30;99.90;;;;;;5049772;28;20640;-74
2023/04/24 01:12:38;;;;;;;0.50;0.50;;;10.30;99.90;;;;;;5051022;28;20693;-74
2023/04/24 01:15:09;;;;;;;0.83;0.70;;;10.30;99.90;;;;;;5050338;28;20651;-73
2023/04/24 01:17:39;;;;;;;0.40;0.40;;;10.30;99.90;;;;;;5050127;28;20679;-73
2023/04/24 01:20:08;;;;;;;0.40;0.33;;;10.30;99.90;;;;;;5049405;28;21301;-74
2023/04/24 01:22:37;;;;;;;0.50;0.50;;;10.40;99.90;;;;;;5050582;28;20703;-74
2023/04/24 01:25:06;;;;;;;0.60;0.50;;;10.30;99.90;;;;;;5050462;28;20721;-74
2023/04/24 01:27:34;;;;;;;0.90;0.70;;;10.30;99.90;;;;;;5050016;28;20964;-74
2023/04/24 01:30:01;;;;;;;0.40;0.30;;;10.30;99.90;;;;;;5049187;28;20677;-73
2023/04/24 01:32:29;;;;;;;0.90;0.73;;;10.30;99.90;;;;;;5050250;28;20987;-74
2023/04/24 01:34:56;;;;;;;0.90;0.40;;;10.30;99.90;;;;;;5049429;28;20647;-74
2023/04/24 01:37:23;;;;;;;0.73;0.60;;;10.20;99.90;;;;;;5049946;28;20750;-74
2023/04/24 01:39:52;;;;;;;0.60;0.60;;;10.20;99.90;;;;;;5043321;28;20700;-74
2023/04/24 01:42:22;;;;;;;1.00;0.60;;;10.20;99.90;;;;;;5041995;28;20642;-74
2023/04/24 01:44:51;;;;;;;2.20;0.40;;;10.20;99.90;;;;;;5038439;28;21113;-74
2023/04/24 01:47:20;;;;;;;0.77;0.40;;;10.20;99.90;;;;;;5041834;28;20829;-74
2023/04/24 01:49:52;;;;;;;0.47;0.47;;;10.10;99.90;;;;;;5039496;28;21054;-73
2023/04/24 01:52:20;;;;;;;0.50;0.30;;;10.30;99.90;;;;;;5039074;28;20644;-73
2023/04/24 01:54:48;;;;;;;0.40;0.30;;;10.30;99.90;;;;;;5038941;28;20652;-74
2023/04/24 01:57:17;;;;;;;0.40;0.40;;;10.20;99.90;;;;;;5040031;28;20656;-74
2023/04/24 01:59:46;;;;;;;0.60;0.60;;;10.20;99.90;;;;;;5038278;28;20644;-74
2023/04/24 02:02:14;;;;;;;0.40;0.37;;;10.20;99.90;;;;;;5039949;28;21605;-74
2023/04/24 02:04:42;;;;;;;0.40;0.30;;;10.20;99.90;;;;;;5040399;28;20695;-74
2023/04/24 02:07:10;;;;;;;0.57;0.40;;;10.30;99.90;;;;;;5038712;28;20640;-74
2023/04/24 02:09:36;;;;;;;0.40;0.40;;;10.20;99.90;;;;;;5038615;28;21244;-74
2023/04/24 02:12:03;;;;;;;0.40;0.30;;;10.20;99.90;;;;;;5040273;28;20645;-74
2023/04/24 02:14:32;;;;;;;0.43;0.27;;;10.20;99.90;;;;;;5039767;28;20657;-74
2023/04/24 02:16:58;;;;;;;0.43;0.43;;;10.20;99.90;;;;;;5038456;28;20633;-74
2023/04/24 02:19:25;;;;;;;0.50;0.33;;;10.20;99.90;;;;;;5038846;28;20738;-74
2023/04/24 02:21:52;;;;;;;0.40;0.30;;;10.20;99.90;;;;;;5039812;28;20647;-74
2023/04/24 02:24:20;;;;;;;0.40;0.20;;;10.20;99.90;;;;;;5039473;28;21173;-74
2023/04/24 02:26:47;;;;;;;0.73;0.60;;;10.10;99.90;;;;;;5039249;28;21305;-75
2023/04/24 02:29:14;;;;;;;1.17;1.07;;;10.10;99.90;;;;;;5038935;28;20622;-73
2023/04/24 02:31:42;;;;;;;0.50;0.47;;;10.10;99.90;;;;;;5038999;28;20644;-74
2023/04/24 02:34:12;;;;;;;0.60;0.40;;;10.20;99.90;;;;;;5040583;28;20646;-74
2023/04/24 02:36:39;;;;;;;1.10;0.43;;;10.10;99.90;;;;;;5037596;28;20764;-74
2023/04/24 02:39:07;;;;;;;0.40;0.40;;;10.20;99.90;;;;;;5038938;28;21210;-74
2023/04/24 02:41:36;;;;;;;12.77;1.03;;;10.10;99.90;;;;;;5034254;28;20657;-74
2023/04/24 02:44:03;;;;;;;0.40;0.40;;;10.10;99.90;;;;;;5039036;28;20629;-74
2023/04/24 02:46:30;;;;;;;0.50;0.47;;;10.10;99.90;;;;;;5048485;28;20760;-74
2023/04/24 02:48:59;;;;;;;0.60;0.60;;;10.00;99.90;;;;;;5047962;28;20664;-74
2023/04/24 02:51:26;;;;;;;0.60;0.40;;;10.10;99.90;;;;;;5048512;28;21030;-74
2023/04/24 02:53:54;;;;;;;0.80;0.47;;;10.10;99.90;;;;;;5048091;28;20755;-74
2023/04/24 02:56:21;;;;;;;0.30;0.30;;;10.10;99.90;;;;;;5048674;28;20643;-75
2023/04/24 02:58:48;;;;;;;0.53;0.50;;;10.10;99.90;;;;;;5047773;28;20631;-74
2023/04/24 03:01:16;;;;;;;0.90;0.73;;;10.20;99.90;;;;;;5048425;28;20654;-74
2023/04/24 03:03:44;;;;;;;0.50;0.50;;;10.20;99.90;;;;;;5048459;28;20784;-74
2023/04/24 03:06:12;;;;;;;0.40;0.23;;;10.20;99.90;;;;;;5048533;28;20755;-75
2023/04/24 03:08:39;;;;;;;0.73;0.60;;;10.20;99.90;;;;;;5047494;28;20624;-74
2023/04/24 03:11:06;;;;;;;0.40;0.40;;;10.30;99.90;;;;;;5047219;28;20654;-76
2023/04/24 03:13:34;;;;;;;0.73;0.73;;;10.30;99.90;;;;;;5048674;28;20679;-75
2023/04/24 03:16:02;;;;;;;0.60;0.40;;;10.20;99.90;;;;;;5029598;28;20745;-76
2023/04/24 03:18:29;;;;;;;1.10;0.60;;;10.10;99.90;;;;;;5047433;28;20637;-75
2023/04/24 03:20:56;;;;;;;0.50;0.50;;;10.10;99.90;;;;;;5047679;28;20645;-74
2023/04/24 03:23:25;;;;;;;0.30;0.20;;;10.10;99.90;;;;;;5047917;28;20695;-75
2023/04/24 03:25:52;;;;;;;0.53;0.53;;;10.00;99.90;;;;;;5047789;28;20698;-74
2023/04/24 03:28:19;;;;;;;1.13;0.47;;;10.00;99.90;;;;;;5047810;28;20632;-74
2023/04/24 03:30:46;;;;;;;0.37;0.33;;;10.00;99.90;;;;;;5047863;28;20740;-74
2023/04/24 03:33:13;;;;;;;0.50;0.40;;;10.00;99.90;;;;;;5048242;28;20637;-74
2023/04/24 03:35:41;;;;;;;0.30;0.30;;;10.00;99.90;;;;;;5047411;28;20660;-74
2023/04/24 03:38:07;;;;;;;2.37;1.00;;;10.00;99.90;;;;;;5047226;28;20627;-73
2023/04/24 03:40:35;;;;;;;1.90;0.70;;;10.00;99.90;;;;;;5044684;28;21301;-75
2023/04/24 03:43:02;;;;;;;0.30;0.30;;;10.00;99.90;;;;;;5047794;28;20716;-75
2023/04/24 03:45:29;;;;;;;0.83;0.40;;;9.90;99.90;;;;;;5047441;28;20752;-74
2023/04/24 03:47:56;;;;;;;0.53;0.53;;;9.80;99.90;;;;;;5047742;28;20619;-75
2023/04/24 03:50:23;;;;;;;0.30;0.30;;;9.90;99.90;;;;;;5046586;28;20629;-75
2023/04/24 03:52:50;;;;;;;0.83;0.60;;;9.80;99.90;;;;;;5047847;28;20752;-75
2023/04/24 03:55:17;;;;;;;0.60;0.50;;;9.90;99.90;;;;;;5047792;28;20966;-75
2023/04/24 03:57:45;;;;;;;0.60;0.50;;;9.80;99.90;;;;;;5047922;28;20999;-75
2023/04/24 04:00:14;;;;;;;0.67;0.40;;;9.80;99.90;;;;;;5046408;28;20993;-75
2023/04/24 04:02:40;;;;;;;0.30;0.30;;;9.80;99.90;;;;;;5047666;28;20612;-75
2023/04/24 04:05:08;;;;;;;0.50;0.50;;;9.80;99.90;;;;;;5047500;28;20635;-75
2023/04/24 04:07:35;;;;;;;0.73;0.57;;;9.70;99.90;;;;;;5047867;28;20625;-74
2023/04/24 04:10:02;;;;;;;0.97;0.60;;;9.80;99.90;;;;;;5047027;28;21177;-74
2023/04/24 04:12:28;;;;;;;0.90;0.90;;;9.70;99.90;;;;;;5047948;28;20711;-75
2023/04/24 04:14:57;;;;;;;0.40;0.30;;;9.70;99.90;;;;;;5047670;28;20667;-74
2023/04/24 04:17:23;;;;;;;0.30;0.30;;;9.80;99.90;;;;;;5046809;28;20744;-74
2023/04/24 04:19:50;;;;;;;0.70;0.70;;;9.80;99.90;;;;;;5052131;28;20735;-74
2023/04/24 04:22:17;;;;;;;0.50;0.40;;;9.70;99.90;;;;;;5050667;28;20649;-74
2023/04/24 04:24:44;;;;;;;0.57;0.57;;;9.80;99.90;;;;;;5047583;28;20629;-75
2023/04/24 04:27:12;;;;;;;0.60;0.60;;;9.80;99.90;;;;;;5047180;28;20689;-75
2023/04/24 04:29:39;;;;;;;1.13;0.70;;;9.70;99.90;;;;;;5047674;28;20644;-74
2023/04/24 04:32:08;;;;;;;0.73;0.70;;;9.50;99.90;;;;;;5032731;28;20747;-75
2023/04/24 04:34:37;;;;;;;0.90;0.80;;;9.50;99.90;;;;;;5050817;28;20661;-74
2023/04/24 04:37:04;;;;;;;1.17;1.08;;;9.30;99.90;;;;;;5050806;28;21032;-75
2023/04/24 04:39:31;;;;;;;1.03;0.93;;;9.10;99.90;;;;;;5050711;28;20225;-74
2023/04/24 04:41:58;;;;;;;0.90;0.90;;;9.10;99.90;;;;;;5050900;28;20683;-75
2023/04/24 04:44:25;;;;;;;0.60;0.60;;;8.90;99.90;;;;;;5050814;28;20194;-74
2023/04/24 04:46:56;;;;;;;0.60;0.57;;;8.80;99.90;;;;;;5050501;28;20236;-75
2023/04/24 04:49:24;;;;;;;0.80;0.80;;;8.70;99.90;;;;;;5050258;28;20214;-75
2023/04/24 04:51:51;;;;;;;5.03;1.15;;;8.80;99.90;;;;;;5051004;28;20240;-75
2023/04/24 04:54:18;;;;;;;1.33;1.23;;;8.70;99.90;;;;;;5051194;28;20697;-75
2023/04/24 04:56:45;;;;;;;0.60;0.60;;;8.60;99.90;;;;;;5050640;28;20656;-75
2023/04/24 04:59:12;;;;;;;1.00;1.00;;;8.60;99.90;;;;;;5049961;28;20632;-75
2023/04/24 05:01:39;;;;;;;1.27;1.27;;;8.60;99.90;;;;;;5050929;28;20589;-75
2023/04/24 05:04:05;;;;;;;0.80;0.80;;;8.60;99.90;;;;;;5050494;28;20324;-74
2023/04/24 05:06:33;;;;;;;1.03;0.63;;;8.50;99.90;;;;;;5050371;28;20675;-74
2023/04/24 05:09:00;;;;;;;3.83;1.13;;;8.50;99.90;;;;;;5050199;28;20627;-73
2023/04/24 05:11:27;;;;;;;0.63;0.63;;;8.50;99.90;;;;;;5049847;28;20652;-73
2023/04/24 05:13:54;;;;;;;1.10;1.00;;;8.50;99.90;;;;;;5050462;28;20639;-74
2023/04/24 05:16:21;;;;;;;1.15;1.05;;;8.60;99.90;;;;;;5050277;28;21174;-74
2023/04/24 05:18:48;;;;;;;1.33;1.30;;;8.60;99.90;;;;;;5050147;28;20622;-74
2023/04/24 05:21:14;;;;;;;1.80;1.70;;;8.60;99.90;;;;;;5050306;28;21294;-74
2023/04/24 05:23:43;;;;;;;1.00;0.90;;;8.50;99.90;;;;;;5050104;28;20288;-75
2023/04/24 05:26:09;;;;;;;0.90;0.90;;;8.50;99.90;;;;;;5049422;28;20226;-74
2023/04/24 05:28:36;;;;;;;0.60;0.53;;;8.50;99.90;;;;;;5049624;28;20237;-74
2023/04/24 05:31:06;;;;;;;2.10;1.92;;;8.60;99.90;;;;;;5050646;28;21010;-74
2023/04/24 05:33:33;;;;;;;1.07;1.07;;;8.60;99.90;;;;;;5050199;28;20321;-74
2023/04/24 05:35:59;;;;;;;0.60;0.60;;;8.60;99.90;;;;;;5049538;28;20677;-74
2023/04/24 05:38:26;;;;;;;0.60;0.60;;;8.60;99.90;;;;;;5049395;28;20580;-74
2023/04/24 05:40:54;;;;;;;1.40;1.30;;;8.60;99.90;;;;;;5043496;28;20231;-74
2023/04/24 05:43:21;;;;;;;1.43;0.90;;;8.70;99.90;;;;;;5046019;28;20620;-73
2023/04/24 05:45:48;;;;;;;0.90;0.70;;;8.60;99.90;;;;;;5039725;28;20655;-72
2023/04/24 05:48:15;;;;;;;1.00;1.00;;;8.60;99.90;;;;;;5046361;28;20720;-73
2023/04/24 05:50:42;;;;;;;0.50;0.50;;;8.60;99.90;;;;;;5048949;28;20699;-73
2023/04/24 05:53:10;;;;;;;0.80;0.77;;;8.70;99.90;;;;;;5048912;28;20642;-73
2023/04/24 05:55:37;;;;;;;2.30;1.15;;;8.70;99.90;;;;;;5049629;28;20675;-73
2023/04/24 05:58:05;;;;;;;1.10;1.00;;;8.70;99.90;;;;;;5049240;28;20300;-73
2023/04/24 06:00:32;;;;;;;1.37;1.23;;;8.70;99.90;;;;;;5069572;28;20614;-74
2023/04/24 06:03:00;;;;;;;1.45;1.30;;;8.80;99.90;;;;;;5069977;28;20733;-73
2023/04/24 06:05:27;;;;;;;1.03;0.97;;;8.90;99.90;;;;;;5061880;28;20230;-73
2023/04/24 06:07:54;;;;;;;1.00;0.90;;;8.90;99.90;;;;;;5049224;28;20640;-73
2023/04/24 06:10:21;;;;;;;1.07;0.97;;;8.90;99.90;;;;;;5052914;28;20969;-75
2023/04/24 06:12:47;;;;;;;3.60;1.83;;;8.80;99.90;;;;;;5050091;28;21189;-74
2023/04/24 06:15:16;;;;;;;1.88;1.75;;;8.80;99.90;;;;;;5049317;28;20597;-73
2023/04/24 06:17:42;;;;;;;1.83;1.73;;;8.70;99.90;;;;;;5049145;28;20625;-73
2023/04/24 06:20:10;;;;;;;1.23;1.13;;;8.80;99.90;;;;;;5048312;28;21187;-73
2023/04/24 06:22:39;;;;;;;1.50;1.40;;;9.00;99.90;;;;;;5048822;28;20628;-73
2023/04/24 06:25:07;;;;;;;1.00;0.63;;;9.00;99.90;;;;;;5066042;28;20638;-73
2023/04/24 06:27:34;;;;;;;2.00;0.90;;;9.00;99.90;;;;;;5069410;28;20644;-73
2023/04/24 06:30:00;;;;;;;1.13;1.13;;;9.10;99.90;;;;;;5068428;28;20638;-72
2023/04/24 06:32:30;;;;;;;0.70;0.70;;;9.30;99.90;;;;;;5060793;28;21038;-73
2023/04/24 06:34:57;;;;;;;1.57;1.47;;;9.30;99.90;;;;;;5047961;28;20656;-72
2023/04/24 06:37:24;;;;;;;1.03;1.03;;;9.40;99.90;;;;;;5039192;28;21156;-72
2023/04/24 06:39:51;;;;;;;0.87;0.87;;;9.40;99.90;;;;;;5039340;28;20637;-72
2023/04/24 06:42:20;;;;;;;1.03;0.93;;;9.50;99.90;;;;;;5036500;28;20652;-72
2023/04/24 06:44:47;;;;;;;0.87;0.87;;;9.60;99.90;;;;;;5048954;28;20637;-72
2023/04/24 06:47:14;;;;;;;0.80;0.80;;;9.80;99.90;;;;;;5048600;28;20649;-72
2023/04/24 06:49:42;;;;;;;0.90;0.87;;;10.00;99.90;;;;;;5048202;28;20631;-73
2023/04/24 06:52:09;;;;;;;2.20;1.50;;;10.10;99.90;;;;;;5047180;28;20647;-73
2023/04/24 06:54:36;;;;;;;1.30;1.20;;;10.10;99.90;;;;;;5048559;28;20625;-73
2023/04/24 06:57:03;;;;;;;1.73;0.77;;;10.30;99.90;;;;;;5048630;28;20719;-73
2023/04/24 06:59:30;;;;;;;0.67;0.67;;;10.30;99.90;;;;;;5040855;28;20675;-76
2023/04/24 07:01:57;;;;;;;1.00;0.90;;;10.30;99.90;;;;;;5047694;28;20676;-77
2023/04/24 07:04:24;;;;;;;1.10;1.00;;;10.40;99.90;;;;;;5033737;28;20644;-77
2023/04/24 07:06:55;;;;;;;0.77;0.60;;;10.50;99.90;;;;;;5048096;28;20641;-77
2023/04/24 07:09:23;;;;;;;1.00;0.90;;;10.60;99.90;;;;;;5050131;28;20631;-75
2023/04/24 07:11:51;;;;;;;1.07;0.97;;;10.70;99.90;;;;;;5067717;28;20648;-73
2023/04/24 07:14:18;;;;;;;0.93;0.73;;;10.60;99.90;;;;;;5048241;28;20691;-75
2023/04/24 07:16:45;;;;;;;2.37;1.20;;;10.60;99.90;;;;;;5046874;28;21163;-74
2023/04/24 07:19:12;;;;;;;0.80;0.80;;;10.70;99.90;;;;;;5046729;28;20629;-74
2023/04/24 07:21:39;;;;;;;1.20;0.83;;;10.60;99.90;;;;;;5047090;28;20671;-72
2023/04/24 07:24:10;;;;;;;1.57;1.50;;;10.50;99.90;;;;;;5048140;28;20629;-74
2023/04/24 07:26:37;;;;;;;0.90;0.90;;;10.40;99.90;;;;;;5050705;28;20657;-74
2023/04/24 07:29:04;;;;;;;2.40;1.40;;;10.20;99.90;;;;;;5046418;28;20639;-74
2023/04/24 07:31:31;;;;;;;0.93;0.93;;;10.10;99.90;;;;;;5047920;28;20683;-73
2023/04/24 07:33:58;;;;;;;1.33;1.10;;;10.20;99.90;;;;;;5047739;28;20736;-73
2023/04/24 07:36:25;;;;;;;2.87;1.13;;;10.20;99.90;;;;;;5046716;28;20669;-74
2023/04/24 07:38:53;;;;;;;0.57;0.57;;;10.10;99.90;;;;;;5046983;28;20732;-74
2023/04/24 07:41:21;;;;;;;1.67;1.47;;;10.20;99.90;;;;;;5047654;28;20664;-73
2023/04/24 07:43:48;;;;;;;1.03;0.97;;;10.40;99.90;;;;;;5047400;28;20639;-72
2023/04/24 07:46:15;;;;;;;2.00;0.80;;;10.60;99.90;;;;;;5044955;28;21078;-73
2023/04/24 07:48:42;;;;;;;0.97;0.87;;;10.60;98.30;;;;;;5047156;28;20639;-73
2023/04/24 07:51:10;;;;;;;2.83;0.87;;;10.70;98.40;;;;;;5039816;28;20662;-73
2023/04/24 07:53:36;;;;;;;1.23;1.10;;;10.80;99.90;;;;;;5056198;28;21050;-73
2023/04/24 07:56:03;;;;;;;1.20;1.03;;;10.90;99.90;;;;;;5042273;28;21182;-71
2023/04/24 07:58:31;;;;;;;1.20;1.03;;;10.80;99.90;;;;;;5042236;28;20631;-71
2023/04/24 08:00:58;;;;;;;0.90;0.90;;;10.70;98.40;;;;;;5041431;28;20652;-71
2023/04/24 08:03:25;;;;;;;0.50;0.50;;;10.60;97.90;;;;;;5047937;28;20637;-71
2023/04/24 08:05:52;;;;;;;0.90;0.90;;;10.60;97.80;;;;;;5039245;28;20743;-72
2023/04/24 08:08:21;;;;;;;0.70;0.70;;;10.60;97.40;;;;;;5039564;28;20632;-72
2023/04/24 08:10:47;;;;;;;1.00;1.00;;;10.40;97.50;;;;;;5043523;28;20659;-72
2023/04/24 08:13:14;;;;;;;5.53;2.00;;;10.30;96.40;;;;;;5050398;28;20628;-72
2023/04/24 08:15:42;;;;;;;0.37;0.37;;;10.20;95.40;;;;;;5051114;28;20681;-72
2023/04/24 08:18:11;;;;;;;0.80;0.80;;;10.10;97.00;;;;;;5050601;28;20635;-72
2023/04/24 08:20:38;;;;;;;0.50;0.50;;;10.10;96.70;;;;;;5051206;28;20664;-72
2023/04/24 08:23:05;;;;;;;0.87;0.73;;;10.20;96.70;;;;;;5050652;28;21212;-72
2023/04/24 08:25:32;;;;;;;0.60;0.60;;;10.40;97.60;;;;;;5042156;28;20666;-72
2023/04/24 08:27:59;;;;;;;1.13;1.03;;;10.30;95.20;;;;;;5048736;28;20627;-72
2023/04/24 08:30:25;;;;;;;0.50;0.50;;;10.40;94.50;;;;;;5048098;28;20786;-72
2023/04/24 08:32:54;;;;;;;0.83;0.80;;;10.50;93.90;;;;;;5043097;28;20987;-72
2023/04/24 08:35:21;;;;;;;1.57;0.83;;;10.70;95.00;;;;;;5041033;28;20630;-72
2023/04/24 08:37:48;;;;;;;0.60;0.50;;;10.70;93.00;;;;;;5041585;28;20621;-73
2023/04/24 08:40:16;;;;;;;0.93;0.83;;;10.80;93.60;;;;;;5041198;28;21149;-72
2023/04/24 08:42:44;;;;;;;0.77;0.77;;;10.90;93.40;;;;;;5046152;28;20657;-73
2023/04/24 08:45:12;;;;;;;0.80;0.70;;;11.00;94.40;;;;;;5041580;28;20665;-73
2023/04/24 08:47:40;;;;;;;0.70;0.70;;;11.30;94.20;;;;;;5047358;28;20629;-73
2023/04/24 08:50:09;;;;;;;0.87;0.87;;;11.60;94.20;;;;;;5045956;28;21169;-73
2023/04/24 08:52:37;;;;;;;0.80;0.80;;;11.70;92.20;;;;;;5050096;28;20627;-73
2023/04/24 08:55:04;;;;;;;0.83;0.83;;;11.70;92.40;;;;;;5048666;28;20629;-73
2023/04/24 08:57:52;;;;;;;1.10;1.10;;;11.80;91.00;;;;;;5043349;28;20651;-73
2023/04/24 09:00:20;;;;;;;1.00;0.70;;;11.80;92.20;;;;;;5039968;28;20626;-72
2023/04/24 09:02:49;;;;;;;0.60;0.50;;;11.70;91.60;;;;;;5041473;28;20636;-73
2023/04/24 09:05:18;;;;;;;1.43;0.70;;;11.60;92.60;;;;;;5049178;28;20707;-73
2023/04/24 09:07:47;;;;;;;1.90;1.20;;;11.60;92.20;;;;;;5047482;28;21172;-72
2023/04/24 09:10:14;;;;;;;1.13;0.67;;;11.70;91.60;;;;;;5049296;28;21010;-72
2023/04/24 09:12:42;;;;;;;0.73;0.73;;;11.90;91.90;;;;;;5050248;28;20632;-73
2023/04/24 09:15:10;;;;;;;1.60;1.00;;;11.90;91.50;;;;;;5035773;28;20720;-73
2023/04/24 09:17:37;;;;;;;1.03;0.93;;;11.90;92.50;;;;;;5046036;28;21572;-72
2023/04/24 09:20:04;;;;;;;1.20;1.00;;;11.80;92.00;;;;;;5040076;28;20997;-72
2023/04/24 09:22:33;;;;;;;1.00;1.00;;;11.80;91.50;;;;;;5041579;28;20682;-72
2023/04/24 09:25:05;;;;;;;0.93;0.93;;;12.00;91.40;;;;;;5037639;28;20635;-72
2023/04/24 09:27:32;;;;;;;0.60;0.60;;;12.00;91.60;;;;;;5048747;28;20666;-72
2023/04/24 09:30:00;;;;;;;1.33;0.77;;;11.80;91.10;;;;;;5048286;28;20626;-73
2023/04/24 09:32:29;;;;;;;0.50;0.50;;;11.70;91.70;;;;;;5042231;28;20664;-72
2023/04/24 09:35:11;;;;;;;0.97;0.50;;;11.40;88.10;;;;;;5047255;28;20648;-72
2023/04/24 09:37:41;;;;;;;0.73;0.73;;;11.70;87.70;;;;;;5038786;28;20731;-73
2023/04/24 09:40:13;;;;;;;1.30;0.90;;;12.00;88.40;;;;;;5048596;28;20633;-73
2023/04/24 09:42:40;;;;;;;0.83;0.83;;;12.20;86.90;;;;;;5042371;28;20987;-73
2023/04/24 09:45:11;;;;;;;1.43;1.33;;;12.50;86.60;;;;;;5047109;28;20646;-73
2023/04/24 09:47:38;;;;;;;2.17;0.97;;;12.90;84.10;;;;;;5044922;28;20620;-73
2023/04/24 09:50:11;;;;;;;1.70;0.70;;;12.90;82.60;;;;;;5037192;28;20620;-73
2023/04/24 09:52:43;;;;;;;1.13;0.60;;;12.60;81.80;;;;;;5039673;28;20732;-72
2023/04/24 09:55:16;;;;;;;1.43;0.60;;;12.30;80.90;;;;;;5040990;28;21434;-72
2023/04/24 09:57:54;;;;;;;0.70;0.70;;;12.00;82.10;;;;;;5044735;28;20664;-73
2023/04/24 10:00:25;;;;;;;1.03;0.50;;;12.00;83.30;;;;;;5035024;28;20989;-72
2023/04/24 10:02:56;;;;;;;0.80;0.60;;;11.70;82.20;;;;;;5042476;28;20637;-72
2023/04/24 10:05:28;;;;;;;2.10;1.03;;;11.70;81.20;;;;;;5039799;28;20978;-72
2023/04/24 10:08:03;;;;;;;4.60;0.73;;;11.40;80.90;;;;;;5037133;28;20624;-72
2023/04/24 10:10:30;;;;;;;0.90;0.80;;;11.50;82.90;;;;;;5041674;28;20650;-73
2023/04/24 10:12:57;;;;;;;0.83;0.70;;;11.70;81.70;;;;;;5047200;28;20631;-72
2023/04/24 10:15:25;;;;;;;0.80;0.70;;;12.10;83.60;;;;;;5041309;28;20647;-73
2023/04/24 10:17:53;;;;;;;0.73;0.70;;;12.30;81.50;;;;;;5048689;28;21251;-73
2023/04/24 10:20:22;;;;;;;0.70;0.63;;;12.20;81.50;;;;;;5049021;28;20625;-73
2023/04/24 10:22:53;;;;;;;0.53;0.53;;;12.60;80.00;;;;;;5050014;28;20655;-74
2023/04/24 10:25:23;;;;;;;1.23;0.60;;;12.60;76.30;;;;;;5049452;28;20991;-74
2023/04/24 10:27:51;;;;;;;0.73;0.73;;;12.50;78.90;;;;;;5047997;28;20628;-75
2023/04/24 10:30:19;;;;;;;3.53;0.80;;;12.60;78.70;;;;;;5048573;28;20723;-73
2023/04/24 10:32:47;;;;;;;0.70;0.70;;;12.80;76.80;;;;;;5049213;28;20612;-73
2023/04/24 10:35:15;;;;;;;1.17;1.07;;;13.00;75.20;;;;;;5049351;28;20624;-73
2023/04/24 10:37:45;;;;;;;0.57;0.57;;;13.40;77.40;;;;;;5040040;28;20683;-73
2023/04/24 10:40:18;;;;;;;0.97;0.50;;;13.40;74.80;;;;;;5045288;28;20624;-73
2023/04/24 10:42:48;;;;;;;0.97;0.70;;;13.30;74.30;;;;;;5028684;28;20515;-74
2023/04/24 10:45:18;;;;;;;0.90;0.40;;;13.10;75.40;;;;;;5036913;28;21072;-73
2023/04/24 10:47:53;;;;;;;2.40;0.97;;;12.80;75.50;;;;;;5047552;28;21223;-74
2023/04/24 10:50:20;;;;;;;0.83;0.53;;;12.70;74.00;;;;;;5041587;28;20620;-74
2023/04/24 10:52:47;;;;;;;0.40;0.40;;;12.40;72.50;;;;;;5039870;28;20633;-74
2023/04/24 10:55:14;;;;;;;0.70;0.60;;;12.20;73.50;;;;;;5041613;28;20643;-74
2023/04/24 10:58:03;;;;;;;0.30;0.30;;;11.90;76.10;;;;;;5041602;28;21271;-74
2023/04/24 11:00:30;;;;;;;0.97;0.50;;;11.90;76.70;;;;;;5031674;28;20653;-72
2023/04/24 11:02:58;;;;;;;0.60;0.60;;;11.70;75.60;;;;;;5028742;28;20641;-71
2023/04/24 11:05:51;;;;;;;1.10;0.70;;;11.70;78.10;;;;;;5031623;28;20648;-71
2023/04/24 11:08:33;;;;;;;0.80;0.80;;;11.50;77.30;;;;;;5047193;28;21023;-72
2023/04/24 11:11:03;;;;;;;1.40;0.60;;;11.30;79.60;;;;;;5046757;28;20660;-72
2023/04/24 11:14:07;;;;;;;1.57;1.47;;;11.40;81.10;;;;;;5047207;28;20621;-72
2023/04/24 11:16:38;;;;;;;0.30;0.30;;;11.40;79.30;;;;;;5049479;28;20665;-72
2023/04/24 11:19:07;;;;;;;1.73;0.67;;;11.20;78.60;;;;;;5040496;28;20685;-74
2023/04/24 11:21:40;;;;;;;3.63;1.50;;;11.10;80.10;;;;;;5038118;28;20665;-71
2023/04/24 11:24:31;;;;;;;1.53;1.00;;;11.10;80.30;;;;;;5041528;28;21035;-72
2023/04/24 11:27:01;;;;;;;1.70;0.87;;;11.10;82.60;;;;;;5047668;28;20651;-72
2023/04/24 11:29:43;;;;;;;1.23;0.57;;;11.30;81.30;;;;;;5036256;28;20640;-72
2023/04/24 11:32:19;;;;;;;1.70;1.07;;;11.70;81.90;;;;;;5029164;28;20676;-73
2023/04/24 11:34:47;;;;;;;0.90;0.90;;;12.20;79.60;;;;;;5042324;28;20986;-72
2023/04/24 11:37:15;;;;;;;1.10;0.80;;;12.40;78.50;;;;;;5045763;28;20664;-72
2023/04/24 11:39:41;;;;;;;0.60;0.60;;;12.40;78.50;;;;;;5046670;28;21209;-72
2023/04/24 11:42:09;;;;;;;0.47;0.40;;;12.30;80.00;;;;;;5032951;28;20654;-72
2023/04/24 11:44:37;;;;;;;1.13;0.73;;;12.10;79.00;;;;;;5029682;28;20636;-71
2023/04/24 11:47:05;;;;;;;0.60;0.60;;;11.90;78.10;;;;;;5043770;28;20659;-73
2023/04/24 11:49:32;;;;;;;0.67;0.63;;;11.70;81.50;;;;;;5043269;28;20735;-71
2023/04/24 11:52:00;;;;;;;0.80;0.70;;;11.60;80.20;;;;;;5039109;28;20652;-73
2023/04/24 11:54:27;;;;;;;1.37;1.27;;;11.60;80.40;;;;;;5038509;28;20625;-72
2023/04/24 11:56:54;;;;;;;0.63;0.53;;;11.70;80.30;;;;;;5038485;28;20664;-72
2023/04/24 11:59:21;;;;;;;0.67;0.67;;;11.80;79.20;;;;;;5038248;28;20634;-73
2023/04/24 12:01:48;;;;;;;0.77;0.60;;;12.30;79.90;;;;;;5037952;28;20699;-73
2023/04/24 12:04:18;;;;;;;1.23;0.93;;;13.10;78.90;;;;;;5044831;28;21483;-72
2023/04/24 12:07:00;;;;;;;1.50;0.90;;;13.50;75.50;;;;;;5054566;28;20736;-72
2023/04/24 12:09:27;;;;;;;1.37;0.73;;;13.70;74.10;;;;;;5050790;28;20625;-72
2023/04/24 12:11:56;;;;;;;0.70;0.60;;;13.40;71.50;;;;;;5038832;28;20659;-72
2023/04/24 12:14:23;;;;;;;0.70;0.57;;;13.10;73.70;;;;;;5045742;28;21212;-72
2023/04/24 12:16:51;;;;;;;1.03;0.80;;;12.60;73.90;;;;;;5046981;28;20673;-72
2023/04/24 12:19:21;;;;;;;0.90;0.90;;;12.10;75.00;;;;;;5035406;28;20631;-72
2023/04/24 12:22:01;;;;;;;1.50;1.07;;;11.90;76.70;;;;;;5042795;28;21108;-72
2023/04/24 12:24:27;;;;;;;0.77;0.77;;;11.50;78.60;;;;;;5043318;28;20633;-72
2023/04/24 12:26:54;;;;;;;0.70;0.63;;;11.40;79.50;;;;;;5037888;28;21223;-73
2023/04/24 12:29:21;;;;;;;1.77;0.73;;;11.50;79.90;;;;;;5038965;28;20760;-71
2023/04/24 12:31:48;;;;;;;0.43;0.40;;;11.60;79.20;;;;;;5036967;28;20655;-72
2023/04/24 12:34:21;;;;;;;0.60;0.60;;;11.70;77.10;;;;;;5047580;28;21227;-72
2023/04/24 12:36:48;;;;;;;0.40;0.40;;;11.70;77.30;;;;;;5042666;28;21209;-72
2023/04/24 12:39:18;;;;;;;2.20;2.10;;;11.70;78.30;;;;;;5035493;28;20632;-72
2023/04/24 12:42:06;;;;;;;0.60;0.60;;;11.70;77.50;;;;;;5038189;28;20648;-72
2023/04/24 12:44:34;;;;;;;1.33;1.03;;;11.70;76.50;;;;;;5030400;28;20643;-72
2023/04/24 12:47:01;;;;;;;0.80;0.80;;;11.90;77.60;;;;;;5038246;28;20773;-72
2023/04/24 12:49:31;;;;;;;0.73;0.73;;;11.90;79.60;;;;;;5029948;28;20730;-72
2023/04/24 12:51:58;;;;;;;1.10;1.10;;;11.90;78.80;;;;;;5047971;28;21213;-72
2023/04/24 12:54:25;;;;;;;0.70;0.50;;;11.50;79.80;;;;;;5041995;28;20630;-72
2023/04/24 12:56:52;;;;;;;1.13;1.03;;;11.40;80.30;;;;;;5037047;28;20671;-72